createdAt,value
2023-05-02T00:00:28.480Z,94.5685
2023-05-02T00:01:30.293Z,94.6422
2023-05-02T00:02:32.363Z,94.8191
2023-05-02T00:03:34.624Z,94.9709
2023-05-02T00:04:36.659Z,94.8639
2023-05-02T00:05:38.727Z,94.8388
2023-05-02T00:06:40.584Z,94.8397
2023-05-02T00:07:42.409Z,94.8139
2023-05-02T00:08:44.296Z,94.8843
2023-05-02T00:09:46.131Z,94.9672
2023-05-02T00:10:48.088Z,95.0799
2023-05-02T00:11:49.914Z,95.0184
2023-05-02T00:12:51.748Z,95.0718
2023-05-02T00:13:53.609Z,95.0442
2023-05-02T00:14:55.495Z,95.1283
2023-05-02T00:15:57.286Z,95.1257
2023-05-02T00:16:59.179Z,95.1726
2023-05-02T00:18:01.039Z,95.3228
2023-05-02T00:19:02.854Z,95.3799
2023-05-02T00:20:04.732Z,95.4840
2023-05-02T00:21:06.580Z,95.5530
2023-05-02T00:22:08.476Z,95.6976
2023-05-02T00:23:10.309Z,95.6963
2023-05-02T00:24:12.179Z,95.7292
2023-05-02T00:25:14.062Z,95.7834
2023-05-02T00:26:15.886Z,95.7956
2023-05-02T00:27:17.808Z,95.8269
2023-05-02T00:28:19.623Z,95.8778
2023-05-02T00:29:21.475Z,95.9081
2023-05-02T00:30:23.310Z,95.9507
2023-05-02T00:31:25.188Z,96.0257
2023-05-02T00:32:27.108Z,96.1114
2023-05-02T00:33:29.033Z,96.0839
2023-05-02T00:34:30.830Z,96.1361
2023-05-02T00:35:32.656Z,96.1467
2023-05-02T00:36:34.479Z,96.1592
2023-05-02T00:37:36.392Z,96.1702
2023-05-02T00:38:38.243Z,96.1526
2023-05-02T00:39:40.078Z,96.1530
2023-05-02T00:40:41.897Z,96.1549
2023-05-02T00:41:43.773Z,96.1381
2023-05-02T00:42:45.616Z,96.0492
2023-05-02T00:43:47.484Z,96.0403
2023-05-02T00:44:49.314Z,95.9161
2023-05-02T00:45:51.152Z,95.8622
2023-05-02T00:46:53.100Z,95.7973
2023-05-02T00:47:55.089Z,95.6786
2023-05-02T00:48:56.874Z,95.7066
2023-05-02T00:49:59.085Z,95.7001
2023-05-02T00:51:01.181Z,95.7547
2023-05-02T00:52:03.004Z,95.8097
2023-05-02T00:53:04.841Z,95.8099
2023-05-02T00:54:06.669Z,95.7676
2023-05-02T00:55:08.500Z,95.7143
2023-05-02T00:56:10.321Z,95.7522
2023-05-02T00:57:12.196Z,95.7181
2023-05-02T00:58:13.678Z,95.7694
2023-05-02T00:59:18.127Z,95.8125
2023-05-02T01:00:20.005Z,95.7478
2023-05-02T01:01:21.866Z,95.6971
2023-05-02T01:02:23.840Z,95.7454
2023-05-02T01:03:25.909Z,95.7200
2023-05-02T01:04:27.841Z,95.6639
2023-05-02T01:05:29.698Z,95.7449
2023-05-02T01:06:31.530Z,95.7404
2023-05-02T01:07:33.363Z,95.7194
2023-05-02T01:08:35.215Z,95.7300
2023-05-02T01:09:37.075Z,95.7283
2023-05-02T01:10:38.946Z,95.6745
2023-05-02T01:11:40.823Z,95.6691
2023-05-02T01:12:42.674Z,95.7604
2023-05-02T01:13:44.474Z,95.7227
2023-05-02T01:14:46.294Z,95.7144
2023-05-02T01:15:48.170Z,95.7914
2023-05-02T01:16:50.137Z,95.8445
2023-05-02T01:17:52.004Z,95.8371
2023-05-02T01:18:53.876Z,95.8288
2023-05-02T01:19:55.685Z,95.8613
2023-05-02T01:20:57.523Z,95.9095
2023-05-02T01:21:59.402Z,96.0444
2023-05-02T01:23:01.178Z,96.0072
2023-05-02T01:24:03.019Z,96.1035
2023-05-02T01:25:04.859Z,96.0897
2023-05-02T01:26:06.721Z,96.1145
2023-05-02T01:27:08.679Z,96.1875
2023-05-02T01:28:10.555Z,96.2047
2023-05-02T01:29:12.407Z,96.2419
2023-05-02T01:30:14.233Z,96.3197
2023-05-02T01:31:16.158Z,96.2905
2023-05-02T01:32:18.088Z,96.2918
2023-05-02T01:33:19.916Z,96.3499
2023-05-02T01:34:21.786Z,96.3936
2023-05-02T01:35:23.705Z,96.4137
2023-05-02T01:36:25.633Z,96.4622
2023-05-02T01:37:27.465Z,96.5262
2023-05-02T01:38:29.327Z,96.5199
2023-05-02T01:39:31.174Z,96.5145
2023-05-02T01:40:33.019Z,96.5590
2023-05-02T01:41:34.881Z,96.5891
2023-05-02T01:42:36.759Z,96.6149
2023-05-02T01:43:38.609Z,96.5922
2023-05-02T01:44:40.489Z,96.5793
2023-05-02T01:45:42.404Z,96.5068
2023-05-02T01:46:44.584Z,96.5098
2023-05-02T01:47:46.572Z,96.5472
2023-05-02T01:48:48.401Z,96.5509
2023-05-02T01:49:50.256Z,96.5682
2023-05-02T01:50:52.075Z,96.5987
2023-05-02T01:51:53.966Z,96.6165
2023-05-02T01:52:55.863Z,96.6821
2023-05-02T01:53:57.798Z,96.6615
2023-05-02T01:54:59.650Z,96.6577
2023-05-02T01:56:01.448Z,96.6780
2023-05-02T01:57:03.277Z,96.6708
2023-05-02T01:58:05.209Z,96.7112
2023-05-02T01:59:07.066Z,96.8141
2023-05-02T02:00:08.936Z,96.8931
2023-05-02T02:01:10.756Z,96.9432
2023-05-02T02:02:12.665Z,97.0044
2023-05-02T02:03:14.558Z,97.0197
2023-05-02T02:04:16.506Z,97.0658
2023-05-02T02:05:18.376Z,97.1238
2023-05-02T02:06:20.251Z,97.1181
2023-05-02T02:07:22.074Z,97.0934
2023-05-02T02:08:23.974Z,97.0840
2023-05-02T02:09:25.860Z,97.0891
2023-05-02T02:10:27.695Z,97.1213
2023-05-02T02:11:29.690Z,97.0977
2023-05-02T02:12:31.541Z,97.0594
2023-05-02T02:13:33.491Z,97.1049
2023-05-02T02:14:35.316Z,97.1800
2023-05-02T02:15:37.217Z,97.2702
2023-05-02T02:16:39.176Z,97.3390
2023-05-02T02:17:41.075Z,97.3645
2023-05-02T02:18:42.986Z,97.3770
2023-05-02T02:19:44.795Z,97.2970
2023-05-02T02:20:46.658Z,97.2354
2023-05-02T02:21:48.485Z,97.0921
2023-05-02T02:22:50.347Z,96.8962
2023-05-02T02:23:52.195Z,96.6466
2023-05-02T02:24:54.584Z,96.4673
2023-05-02T02:25:56.521Z,96.3446
2023-05-02T02:26:58.432Z,96.1762
2023-05-02T02:28:00.248Z,96.0264
2023-05-02T02:29:02.127Z,95.9781
2023-05-02T02:30:04.048Z,95.9965
2023-05-02T02:31:05.932Z,96.0494
2023-05-02T02:32:07.804Z,96.0587
2023-05-02T02:33:09.687Z,95.9985
2023-05-02T02:34:11.578Z,95.9759
2023-05-02T02:35:13.455Z,95.9459
2023-05-02T02:36:15.335Z,95.9170
2023-05-02T02:37:17.153Z,95.9128
2023-05-02T02:38:19.035Z,95.8529
2023-05-02T02:39:20.925Z,95.8156
2023-05-02T02:40:22.808Z,95.7525
2023-05-02T02:41:24.678Z,95.5412
2023-05-02T02:42:26.578Z,95.3850
2023-05-02T02:43:28.439Z,95.3518
2023-05-02T02:44:30.359Z,95.3429
2023-05-02T02:45:32.203Z,95.3178
2023-05-02T02:46:34.084Z,95.2614
2023-05-02T02:47:35.987Z,95.1834
2023-05-02T02:48:37.839Z,95.1508
2023-05-02T02:49:39.725Z,95.0874
2023-05-02T02:50:41.569Z,95.0835
2023-05-02T02:51:43.441Z,95.0753
2023-05-02T02:52:45.271Z,95.0903
2023-05-02T02:53:47.092Z,94.9729
2023-05-02T02:54:49.096Z,94.8352
2023-05-02T02:55:50.959Z,94.9275
2023-05-02T02:56:52.873Z,94.9937
2023-05-02T02:57:54.733Z,95.0297
2023-05-02T02:58:56.606Z,94.9718
2023-05-02T02:59:58.665Z,94.9470
2023-05-02T03:01:00.635Z,94.8087
2023-05-02T03:02:02.606Z,94.6992
2023-05-02T03:03:04.725Z,94.7105
2023-05-02T03:04:06.735Z,94.6548
2023-05-02T03:05:08.711Z,94.5658
2023-05-02T03:06:10.744Z,94.4270
2023-05-02T03:07:12.643Z,94.3758
2023-05-02T03:08:14.559Z,94.2146
2023-05-02T03:09:16.547Z,94.1138
2023-05-02T03:10:18.435Z,93.8210
2023-05-02T03:11:20.349Z,93.6519
2023-05-02T03:12:22.338Z,93.7582
2023-05-02T03:13:24.304Z,93.7398
2023-05-02T03:14:26.198Z,93.7170
2023-05-02T03:15:28.172Z,93.7899
2023-05-02T03:16:30.177Z,93.6029
2023-05-02T03:17:32.111Z,93.3869
2023-05-02T03:18:33.998Z,93.3769
2023-05-02T03:19:35.920Z,93.2877
2023-05-02T03:20:37.897Z,93.1503
2023-05-02T03:21:39.833Z,93.0966
2023-05-02T03:22:41.780Z,92.9530
2023-05-02T03:23:43.710Z,92.9191
2023-05-02T03:24:45.614Z,93.0808
2023-05-02T03:25:47.534Z,93.3504
2023-05-02T03:26:49.438Z,93.3976
2023-05-02T03:27:51.359Z,93.5437
2023-05-02T03:28:53.496Z,93.2752
2023-05-02T03:29:55.392Z,93.1110
2023-05-02T03:30:57.284Z,93.0119
2023-05-02T03:31:59.200Z,93.0994
2023-05-02T03:33:01.148Z,93.2504
2023-05-02T03:34:03.005Z,93.5017
2023-05-02T03:35:04.966Z,93.5431
2023-05-02T03:36:06.923Z,93.5377
2023-05-02T03:37:08.830Z,93.3439
2023-05-02T03:38:10.904Z,93.2409
2023-05-02T03:39:13.059Z,93.2866
2023-05-02T03:40:14.917Z,93.1281
2023-05-02T03:41:16.887Z,92.9344
2023-05-02T03:42:18.932Z,92.9673
2023-05-02T03:43:21.034Z,93.1189
2023-05-02T03:44:22.954Z,93.0711
2023-05-02T03:45:24.863Z,92.9485
2023-05-02T03:46:26.835Z,93.0595
2023-05-02T03:47:28.787Z,93.0497
2023-05-02T03:48:30.711Z,93.0567
2023-05-02T03:49:32.639Z,93.1510
2023-05-02T03:50:34.562Z,93.2845
2023-05-02T03:51:36.587Z,93.4141
2023-05-02T03:52:38.494Z,93.6348
2023-05-02T03:53:40.400Z,93.9121
2023-05-02T03:54:42.278Z,93.9680
2023-05-02T03:55:44.237Z,93.9594
2023-05-02T03:56:46.196Z,93.7598
2023-05-02T03:57:48.074Z,93.5015
2023-05-02T03:58:49.961Z,93.6305
2023-05-02T03:59:51.845Z,93.6234
2023-05-02T04:00:53.725Z,93.4542
2023-05-02T04:01:55.691Z,93.4385
2023-05-02T04:02:57.659Z,93.4687
2023-05-02T04:03:59.674Z,93.4369
2023-05-02T04:05:01.589Z,93.3448
2023-05-02T04:06:03.528Z,93.3911
2023-05-02T04:07:05.399Z,93.3679
2023-05-02T04:08:07.294Z,93.3821
2023-05-02T04:09:09.206Z,93.4466
2023-05-02T04:10:11.100Z,93.5237
2023-05-02T04:11:12.953Z,93.5486
2023-05-02T04:12:14.858Z,93.4918
2023-05-02T04:13:16.782Z,93.4135
2023-05-02T04:14:18.685Z,93.5311
2023-05-02T04:15:20.597Z,93.6251
2023-05-02T04:16:22.501Z,93.8038
2023-05-02T04:17:24.459Z,93.9852
2023-05-02T04:18:26.350Z,94.0024
2023-05-02T04:19:28.232Z,94.0808
2023-05-02T04:20:30.114Z,94.1867
2023-05-02T04:21:32.006Z,94.2337
2023-05-02T04:22:33.984Z,94.1917
2023-05-02T04:23:35.913Z,94.1429
2023-05-02T04:24:37.862Z,94.0757
2023-05-02T04:25:39.801Z,93.9603
2023-05-02T04:26:41.736Z,93.6206
2023-05-02T04:27:43.697Z,93.5758
2023-05-02T04:28:45.586Z,93.4526
2023-05-02T04:29:47.490Z,93.1039
2023-05-02T04:30:49.398Z,93.0508
2023-05-02T04:31:51.334Z,93.0716
2023-05-02T04:32:53.322Z,93.2171
2023-05-02T04:33:55.245Z,93.2684
2023-05-02T04:34:57.135Z,93.2688
2023-05-02T04:35:59.016Z,93.2709
2023-05-02T04:37:00.923Z,93.3086
2023-05-02T04:38:02.850Z,93.2728
2023-05-02T04:39:04.736Z,93.2123
2023-05-02T04:40:06.695Z,93.1758
2023-05-02T04:41:09.150Z,93.4231
2023-05-02T04:42:08.767Z,93.5296
2023-05-02T04:43:10.727Z,93.7629
2023-05-02T04:44:12.728Z,93.9178
2023-05-02T04:45:14.813Z,93.6706
2023-05-02T04:46:16.804Z,93.6024
2023-05-02T04:47:18.741Z,93.6185
2023-05-02T04:48:20.683Z,93.6268
2023-05-02T04:49:22.561Z,93.5259
2023-05-02T04:50:24.463Z,93.7226
2023-05-02T04:51:26.439Z,93.7179
2023-05-02T04:52:28.386Z,93.8657
2023-05-02T04:53:30.338Z,93.9321
2023-05-02T04:54:32.286Z,94.0369
2023-05-02T04:55:34.325Z,94.1321
2023-05-02T04:56:36.230Z,94.2073
2023-05-02T04:57:38.147Z,94.0899
2023-05-02T04:58:40.205Z,94.1192
2023-05-02T04:59:42.121Z,93.9704
2023-05-02T05:00:44.063Z,93.9331
2023-05-02T05:01:46.069Z,93.9732
2023-05-02T05:02:48.092Z,94.0665
2023-05-02T05:03:50.157Z,94.0652
2023-05-02T05:04:52.219Z,94.1240
2023-05-02T05:05:54.195Z,94.1462
2023-05-02T05:06:56.227Z,94.2129
2023-05-02T05:07:58.303Z,94.2555
2023-05-02T05:09:00.181Z,94.2163
2023-05-02T05:10:02.423Z,94.1514
2023-05-02T05:11:04.545Z,93.9878
2023-05-02T05:12:06.473Z,93.9978
2023-05-02T05:13:08.393Z,94.2148
2023-05-02T05:14:10.338Z,94.1808
2023-05-02T05:15:12.254Z,94.2270
2023-05-02T05:16:14.300Z,94.1108
2023-05-02T05:17:16.240Z,94.0862
2023-05-02T05:18:18.159Z,94.0518
2023-05-02T05:19:20.028Z,93.9226
2023-05-02T05:20:21.951Z,93.8578
2023-05-02T05:21:23.876Z,93.7174
2023-05-02T05:22:25.789Z,93.5367
2023-05-02T05:23:27.910Z,93.3200
2023-05-02T05:24:30.742Z,93.1249
2023-05-02T05:25:29.926Z,93.0479
2023-05-02T05:26:31.823Z,92.8948
2023-05-02T05:27:33.775Z,92.8380
2023-05-02T05:28:35.747Z,92.7769
2023-05-02T05:29:37.661Z,92.7760
2023-05-02T05:30:39.553Z,92.6910
2023-05-02T05:31:41.466Z,92.7401
2023-05-02T05:32:43.365Z,92.5313
2023-05-02T05:33:45.296Z,92.4718
2023-05-02T05:34:47.201Z,92.5765
2023-05-02T05:35:49.073Z,92.7602
2023-05-02T05:36:51.062Z,93.2035
2023-05-02T05:37:52.960Z,93.2711
2023-05-02T05:38:54.841Z,93.4795
2023-05-02T05:39:56.749Z,93.4621
2023-05-02T05:40:58.624Z,93.3251
2023-05-02T05:42:00.553Z,93.4248
2023-05-02T05:43:02.479Z,93.3025
2023-05-02T05:44:04.372Z,93.3469
2023-05-02T05:45:06.279Z,93.2932
2023-05-02T05:46:08.233Z,93.0510
2023-05-02T05:47:10.193Z,92.6537
2023-05-02T05:48:12.258Z,92.5687
2023-05-02T05:49:14.138Z,92.3855
2023-05-02T05:50:16.072Z,92.3257
2023-05-02T05:51:17.964Z,92.1953
2023-05-02T05:52:19.842Z,92.3384
2023-05-02T05:53:21.746Z,92.3998
2023-05-02T05:54:23.664Z,92.3977
2023-05-02T05:55:25.620Z,92.1759
2023-05-02T05:56:27.493Z,92.0528
2023-05-02T05:57:29.408Z,92.1044
2023-05-02T05:58:31.328Z,92.1002
2023-05-02T05:59:33.316Z,92.0521
2023-05-02T06:00:35.368Z,92.3040
2023-05-02T06:01:37.288Z,92.2058
2023-05-02T06:02:39.350Z,92.1546
2023-05-02T06:03:41.497Z,92.0125
2023-05-02T06:04:43.830Z,91.8767
2023-05-02T06:05:45.780Z,91.7404
2023-05-02T06:06:47.726Z,91.6646
2023-05-02T06:07:49.629Z,91.7688
2023-05-02T06:08:51.507Z,91.6090
2023-05-02T06:09:53.401Z,91.4622
2023-05-02T06:10:55.563Z,91.3959
2023-05-02T06:11:57.505Z,91.2269
2023-05-02T06:12:59.599Z,91.3469
2023-05-02T06:14:01.521Z,91.4550
2023-05-02T06:15:03.411Z,91.0985
2023-05-02T06:16:05.337Z,91.2889
2023-05-02T06:17:07.306Z,91.0399
2023-05-02T06:18:09.249Z,90.5291
2023-05-02T06:19:11.152Z,90.5297
2023-05-02T06:20:13.049Z,90.4538
2023-05-02T06:21:14.896Z,90.3166
2023-05-02T06:22:16.761Z,90.0997
2023-05-02T06:23:18.803Z,90.1148
2023-05-02T06:24:20.711Z,90.0431
2023-05-02T06:25:22.648Z,90.4181
2023-05-02T06:26:24.609Z,90.5281
2023-05-02T06:27:26.505Z,90.7217
2023-05-02T06:28:28.498Z,90.5164
2023-05-02T06:29:30.521Z,90.3115
2023-05-02T06:30:32.426Z,90.0641
2023-05-02T06:31:34.355Z,90.0631
2023-05-02T06:32:36.308Z,89.6704
2023-05-02T06:33:38.202Z,89.6146
2023-05-02T06:34:40.092Z,89.4960
2023-05-02T06:35:42.015Z,89.3887
2023-05-02T06:36:43.917Z,89.0669
2023-05-02T06:37:45.826Z,88.9734
2023-05-02T06:38:47.705Z,88.9325
2023-05-02T06:39:49.595Z,88.8692
2023-05-02T06:40:51.478Z,89.1302
2023-05-02T06:41:53.342Z,89.1304
2023-05-02T06:42:55.270Z,89.2941
2023-05-02T06:43:57.168Z,89.1949
2023-05-02T06:44:59.019Z,88.8751
2023-05-02T06:46:00.890Z,88.4660
2023-05-02T06:47:02.864Z,88.2623
2023-05-02T06:48:04.765Z,87.9187
2023-05-02T06:49:06.657Z,87.6154
2023-05-02T06:50:08.539Z,88.0556
2023-05-02T06:51:10.406Z,87.9445
2023-05-02T06:52:12.245Z,87.8957
2023-05-02T06:53:14.105Z,87.7444
2023-05-02T06:54:16.042Z,87.7806
2023-05-02T06:55:17.916Z,87.8370
2023-05-02T06:56:19.820Z,88.1522
2023-05-02T06:57:21.710Z,87.9908
2023-05-02T06:58:23.643Z,87.7369
2023-05-02T06:59:25.527Z,87.5461
2023-05-02T07:00:27.607Z,87.5201
2023-05-02T07:01:29.499Z,87.8332
2023-05-02T07:02:31.381Z,87.9083
2023-05-02T07:03:33.296Z,87.3288
2023-05-02T07:04:35.191Z,87.4019
2023-05-02T07:05:37.113Z,87.7971
2023-05-02T07:06:39.012Z,88.1449
2023-05-02T07:07:40.923Z,87.9250
2023-05-02T07:08:42.783Z,87.7714
2023-05-02T07:09:44.688Z,87.2240
2023-05-02T07:10:46.603Z,86.8809
2023-05-02T07:11:48.467Z,87.5554
2023-05-02T07:12:50.316Z,87.6319
2023-05-02T07:13:52.190Z,87.7346
2023-05-02T07:14:54.095Z,87.3422
2023-05-02T07:15:55.983Z,86.6105
2023-05-02T07:16:57.854Z,86.1679
2023-05-02T07:17:59.741Z,86.5472
2023-05-02T07:19:01.583Z,87.3209
2023-05-02T07:20:03.913Z,87.6643
2023-05-02T07:21:06.169Z,87.7324
2023-05-02T07:22:08.058Z,88.0780
2023-05-02T07:23:09.910Z,87.8550
2023-05-02T07:24:11.820Z,87.5329
2023-05-02T07:25:13.720Z,87.2615
2023-05-02T07:26:15.564Z,87.2011
2023-05-02T07:27:17.409Z,87.0974
2023-05-02T07:28:19.679Z,87.0601
2023-05-02T07:29:21.588Z,86.9093
2023-05-02T07:30:23.468Z,86.8876
2023-05-02T07:31:25.396Z,86.2779
2023-05-02T07:32:27.509Z,86.4327
2023-05-02T07:33:29.584Z,86.5361
2023-05-02T07:34:31.426Z,87.0429
2023-05-02T07:35:33.338Z,86.6131
2023-05-02T07:36:35.270Z,86.7720
2023-05-02T07:37:37.198Z,86.4906
2023-05-02T07:38:39.064Z,86.1451
2023-05-02T07:39:40.972Z,86.3837
2023-05-02T07:40:42.833Z,86.8744
2023-05-02T07:41:44.754Z,86.5814
2023-05-02T07:42:46.643Z,86.4432
2023-05-02T07:43:48.525Z,86.8149
2023-05-02T07:44:50.414Z,87.4428
2023-05-02T07:45:52.333Z,87.3254
2023-05-02T07:46:54.202Z,86.8260
2023-05-02T07:47:56.164Z,86.6918
2023-05-02T07:48:58.064Z,86.8042
2023-05-02T07:50:00.146Z,87.1011
2023-05-02T07:51:02.463Z,87.1424
2023-05-02T07:52:04.316Z,86.6130
2023-05-02T07:53:06.179Z,86.6483
2023-05-02T07:54:08.081Z,86.8113
2023-05-02T07:55:09.985Z,87.1264
2023-05-02T07:56:11.840Z,86.8799
2023-05-02T07:57:13.708Z,86.9189
2023-05-02T07:58:15.565Z,87.4594
2023-05-02T07:59:17.433Z,87.1586
2023-05-02T08:00:19.280Z,86.6616
2023-05-02T08:01:21.148Z,86.0805
2023-05-02T08:02:23.126Z,85.8233
2023-05-02T08:03:25.308Z,84.9923
2023-05-02T08:04:27.578Z,84.7010
2023-05-02T08:05:29.565Z,84.0213
2023-05-02T08:06:31.522Z,83.9618
2023-05-02T08:07:33.451Z,84.0753
2023-05-02T08:08:35.344Z,83.6946
2023-05-02T08:09:37.267Z,83.3852
2023-05-02T08:10:39.175Z,83.6683
2023-05-02T08:11:41.097Z,84.4334
2023-05-02T08:12:43.033Z,84.4731
2023-05-02T08:13:44.930Z,84.6290
2023-05-02T08:14:46.833Z,84.6119
2023-05-02T08:15:48.824Z,84.9989
2023-05-02T08:16:50.785Z,84.5921
2023-05-02T08:17:52.744Z,84.8598
2023-05-02T08:18:54.659Z,84.8452
2023-05-02T08:19:57.051Z,84.5071
2023-05-02T08:20:58.964Z,83.8105
2023-05-02T08:22:00.918Z,83.7447
2023-05-02T08:23:02.824Z,83.7385
2023-05-02T08:24:04.698Z,83.4917
2023-05-02T08:25:06.607Z,82.6716
2023-05-02T08:26:08.488Z,82.7042
2023-05-02T08:27:10.424Z,82.1667
2023-05-02T08:28:12.343Z,81.9886
2023-05-02T08:29:14.250Z,81.7214
2023-05-02T08:30:16.116Z,81.5289
2023-05-02T08:31:18.061Z,81.6400
2023-05-02T08:32:19.995Z,81.6993
2023-05-02T08:33:21.957Z,81.8871
2023-05-02T08:34:23.770Z,81.9296
2023-05-02T08:35:25.652Z,81.5523
2023-05-02T08:36:27.541Z,82.4518
2023-05-02T08:37:29.411Z,82.3896
2023-05-02T08:38:31.288Z,82.1494
2023-05-02T08:39:33.143Z,81.4843
2023-05-02T08:40:42.298Z,80.8871
2023-05-02T08:41:37.203Z,80.3063
2023-05-02T08:42:39.036Z,79.9814
2023-05-02T08:43:40.941Z,79.3244
2023-05-02T08:44:42.822Z,79.7398
2023-05-02T08:45:44.807Z,78.8583
2023-05-02T08:46:46.753Z,78.2329
2023-05-02T08:47:48.670Z,77.8772
2023-05-02T08:48:50.504Z,77.3553
2023-05-02T08:49:52.390Z,77.4859
2023-05-02T08:50:54.282Z,76.9698
2023-05-02T08:51:56.077Z,76.6812
2023-05-02T08:52:57.923Z,77.5956
2023-05-02T08:53:59.786Z,77.4375
2023-05-02T08:55:02.119Z,76.9035
2023-05-02T08:56:02.000Z,77.3286
2023-05-02T08:57:03.858Z,76.6676
2023-05-02T08:58:05.749Z,77.2646
2023-05-02T08:59:07.580Z,77.3095
2023-05-02T09:00:09.433Z,77.1928
2023-05-02T09:01:11.260Z,76.8539
2023-05-02T09:02:13.094Z,76.1066
2023-05-02T09:03:14.937Z,75.6594
2023-05-02T09:04:16.858Z,75.0210
2023-05-02T09:05:18.677Z,74.3113
2023-05-02T09:06:20.536Z,73.7578
2023-05-02T09:07:22.381Z,73.6167
2023-05-02T09:08:24.246Z,73.0978
2023-05-02T09:09:26.178Z,72.2823
2023-05-02T09:10:28.009Z,70.2283
2023-05-02T09:11:29.848Z,70.1431
2023-05-02T09:12:31.707Z,70.2240
2023-05-02T09:13:33.594Z,70.3709
2023-05-02T09:14:35.401Z,70.8811
2023-05-02T09:15:37.270Z,70.6564
2023-05-02T09:16:39.219Z,70.8187
2023-05-02T09:17:41.261Z,70.7649
2023-05-02T09:18:43.168Z,70.2818
2023-05-02T09:19:45.006Z,69.8609
2023-05-02T09:20:46.870Z,69.8787
2023-05-02T09:21:48.708Z,69.4665
2023-05-02T09:22:50.595Z,68.9731
2023-05-02T09:23:52.409Z,68.1016
2023-05-02T09:24:54.269Z,67.4413
2023-05-02T09:25:56.107Z,67.5266
2023-05-02T09:26:57.936Z,67.2651
2023-05-02T09:27:59.743Z,66.5358
2023-05-02T09:29:01.620Z,66.2364
2023-05-02T09:30:03.432Z,67.1626
2023-05-02T09:31:05.299Z,66.9829
2023-05-02T09:32:07.299Z,67.0280
2023-05-02T09:33:09.494Z,67.0740
2023-05-02T09:34:11.443Z,66.6904
2023-05-02T09:35:13.367Z,65.8037
2023-05-02T09:36:15.184Z,65.3774
2023-05-02T09:37:17.026Z,65.7573
2023-05-02T09:38:18.851Z,64.7349
2023-05-02T09:39:22.401Z,64.9748
2023-05-02T09:40:21.825Z,65.3992
2023-05-02T09:41:23.683Z,64.8788
2023-05-02T09:42:25.496Z,64.8946
2023-05-02T09:43:27.307Z,65.5054
2023-05-02T09:44:29.128Z,66.3059
2023-05-02T09:45:30.934Z,66.9168
2023-05-02T09:46:32.879Z,66.7944
2023-05-02T09:47:34.736Z,66.8385
2023-05-02T09:48:36.539Z,67.1184
2023-05-02T09:49:38.396Z,67.5135
2023-05-02T09:50:40.202Z,67.2061
2023-05-02T09:51:42.058Z,67.4827
2023-05-02T09:52:43.923Z,67.1317
2023-05-02T09:53:45.772Z,67.1059
2023-05-02T09:54:47.631Z,68.0587
2023-05-02T09:55:49.410Z,68.1281
2023-05-02T09:56:51.226Z,68.2536
2023-05-02T09:57:53.011Z,68.6299
2023-05-02T09:58:54.933Z,69.5697
2023-05-02T09:59:56.707Z,68.6546
2023-05-02T10:00:58.519Z,68.2837
2023-05-02T10:02:00.470Z,67.9120
2023-05-02T10:03:02.466Z,67.8320
2023-05-02T10:04:04.294Z,67.3078
2023-05-02T10:05:06.132Z,66.6742
2023-05-02T10:06:07.945Z,66.7969
2023-05-02T10:07:09.751Z,65.9405
2023-05-02T10:08:11.566Z,65.7299
2023-05-02T10:09:16.574Z,65.7733
2023-05-02T10:10:15.597Z,66.1168
2023-05-02T10:11:17.409Z,65.8504
2023-05-02T10:12:19.289Z,65.0626
2023-05-02T10:13:21.129Z,64.4422
2023-05-02T10:14:23.032Z,63.3603
2023-05-02T10:15:24.873Z,62.7869
2023-05-02T10:16:26.741Z,61.6485
2023-05-02T10:17:28.614Z,61.6939
2023-05-02T10:18:30.487Z,62.5166
2023-05-02T10:19:32.331Z,63.1343
2023-05-02T10:20:34.359Z,64.4481
2023-05-02T10:21:36.359Z,64.5415
2023-05-02T10:22:38.344Z,64.6658
2023-05-02T10:23:40.138Z,64.5704
2023-05-02T10:24:42.002Z,65.0866
2023-05-02T10:25:43.886Z,65.6564
2023-05-02T10:26:45.750Z,65.7146
2023-05-02T10:27:47.581Z,66.2203
2023-05-02T10:28:49.574Z,65.9203
2023-05-02T10:29:51.597Z,65.7855
2023-05-02T10:30:53.414Z,65.5331
2023-05-02T10:31:55.244Z,65.2339
2023-05-02T10:32:57.094Z,64.7759
2023-05-02T10:33:58.915Z,64.0882
2023-05-02T10:35:00.962Z,62.7683
2023-05-02T10:36:03.125Z,62.9098
2023-05-02T10:37:04.946Z,64.0146
2023-05-02T10:38:06.757Z,64.2445
2023-05-02T10:39:08.578Z,64.4905
2023-05-02T10:40:10.409Z,64.5443
2023-05-02T10:41:12.253Z,64.2290
2023-05-02T10:42:14.078Z,64.3469
2023-05-02T10:43:15.936Z,64.6676
2023-05-02T10:44:17.737Z,64.9147
2023-05-02T10:45:19.614Z,64.9547
2023-05-02T10:46:21.463Z,64.9716
2023-05-02T10:47:23.352Z,65.4009
2023-05-02T10:48:25.257Z,65.6254
2023-05-02T10:49:27.074Z,65.4919
2023-05-02T10:50:28.915Z,65.5240
2023-05-02T10:51:30.706Z,66.0428
2023-05-02T10:52:32.678Z,66.5809
2023-05-02T10:53:34.547Z,66.9834
2023-05-02T10:54:36.412Z,66.9554
2023-05-02T10:55:38.261Z,66.3960
2023-05-02T10:56:40.096Z,66.9211
2023-05-02T10:57:42.002Z,67.6152
2023-05-02T10:58:43.863Z,67.0853
2023-05-02T10:59:45.689Z,66.3460
2023-05-02T11:00:47.520Z,66.0616
2023-05-02T11:01:49.350Z,65.8171
2023-05-02T11:02:51.261Z,66.3554
2023-05-02T11:03:53.189Z,66.3007
2023-05-02T11:04:54.977Z,66.0926
2023-05-02T11:05:56.768Z,65.9521
2023-05-02T11:06:58.598Z,65.7317
2023-05-02T11:08:00.475Z,65.5153
2023-05-02T11:09:02.306Z,65.2630
2023-05-02T11:10:04.147Z,64.9328
2023-05-02T11:11:05.954Z,64.9683
2023-05-02T11:12:07.750Z,65.1288
2023-05-02T11:13:09.594Z,65.2965
2023-05-02T11:14:11.415Z,64.7152
2023-05-02T11:15:13.358Z,64.2111
2023-05-02T11:16:15.442Z,62.7230
2023-05-02T11:17:17.306Z,62.6932
2023-05-02T11:18:19.144Z,60.5466
2023-05-02T11:19:20.968Z,60.0715
2023-05-02T11:20:22.794Z,59.5099
2023-05-02T11:21:24.652Z,60.0922
2023-05-02T11:22:26.442Z,59.9290
2023-05-02T11:23:28.253Z,58.3428
2023-05-02T11:24:30.076Z,58.8081
2023-05-02T11:25:31.938Z,59.5130
2023-05-02T11:26:33.730Z,59.4128
2023-05-02T11:27:35.518Z,60.2885
2023-05-02T11:28:37.410Z,61.5613
2023-05-02T11:29:39.265Z,63.1067
2023-05-02T11:30:41.117Z,63.1993
2023-05-02T11:31:42.924Z,63.6692
2023-05-02T11:32:44.773Z,60.9294
2023-05-02T11:33:46.587Z,59.0493
2023-05-02T11:34:48.420Z,61.0454
2023-05-02T11:35:50.229Z,62.3201
2023-05-02T11:36:52.053Z,63.2077
2023-05-02T11:37:53.851Z,63.6115
2023-05-02T11:38:55.684Z,62.8889
2023-05-02T11:39:57.438Z,60.1502
2023-05-02T11:40:59.205Z,57.9337
2023-05-02T11:42:00.963Z,58.6911
2023-05-02T11:43:02.785Z,58.9948
2023-05-02T11:44:04.626Z,59.5573
2023-05-02T11:45:06.448Z,60.4254
2023-05-02T11:46:08.294Z,60.3067
2023-05-02T11:47:10.107Z,58.5364
2023-05-02T11:48:11.922Z,55.5542
2023-05-02T11:49:15.013Z,52.9675
2023-05-02T11:50:14.427Z,50.8989
2023-05-02T11:51:16.164Z,50.1633
2023-05-02T11:52:17.899Z,49.8545
2023-05-02T11:53:19.679Z,50.4221
2023-05-02T11:54:21.502Z,49.9453
2023-05-02T11:55:23.235Z,48.2290
2023-05-02T11:56:24.982Z,48.8013
2023-05-02T11:57:26.702Z,49.2040
2023-05-02T11:58:28.469Z,50.4085
2023-05-02T11:59:30.205Z,53.5254
2023-05-02T12:00:32.017Z,54.0992
2023-05-02T12:01:33.788Z,54.7829
2023-05-02T12:02:35.630Z,55.9759
2023-05-02T12:03:37.429Z,54.7748
2023-05-02T12:04:39.160Z,53.7666
2023-05-02T12:05:40.909Z,51.8110
2023-05-02T12:06:42.654Z,50.6618
2023-05-02T12:07:44.396Z,50.3134
2023-05-02T12:08:46.077Z,49.8309
2023-05-02T12:09:47.814Z,49.8959
2023-05-02T12:10:49.515Z,49.3690
2023-05-02T12:11:51.197Z,50.5976
2023-05-02T12:12:52.905Z,48.8224
2023-05-02T12:13:54.574Z,47.9145
2023-05-02T12:14:56.250Z,47.6555
2023-05-02T12:15:57.904Z,46.5126
2023-05-02T12:16:59.528Z,44.8929
2023-05-02T12:18:01.267Z,46.2221
2023-05-02T12:19:02.880Z,48.0299
2023-05-02T12:20:04.527Z,49.8099
2023-05-02T12:21:06.206Z,51.5222
2023-05-02T12:22:07.990Z,51.6527
2023-05-02T12:23:09.675Z,51.7487
2023-05-02T12:24:11.428Z,52.7147
2023-05-02T12:25:13.149Z,54.2327
2023-05-02T12:26:14.859Z,55.5867
2023-05-02T12:27:16.596Z,56.7692
2023-05-02T12:28:18.340Z,59.5259